Time;durP1;ratioP1;P1;durP2;ratioP2;P2;SDS_P1;SDS_P2;PMS_P1;PMS_P2;Temp;Humidity;BMP_temperature;BMP_pressure;BME280_temperature;BME280_humidity;BME280_pressure;Samples;Min_cycle;Max_cycle;Signal;HPM_P1;HPM_P2
2021/04/30 00:00:09;;;;;;;15.32;7.87;;;;;;;6.85;88.34;92559.22;1837265;77;21096;-78
2021/04/30 00:02:38;;;;;;;11.22;6.78;;;;;;;6.81;88.36;92544.36;1783173;79;21576;-79
2021/04/30 00:05:06;;;;;;;11.18;6.45;;;;;;;6.78;88.96;92538.39;1837059;78;21231;-78
2021/04/30 00:07:34;;;;;;;9.93;6.62;;;;;;;6.81;89.27;92534.91;1820757;78;21775;-77
2021/04/30 00:10:01;;;;;;;8.75;6.35;;;;;;;6.83;89.34;92534.50;1823945;78;21131;-76
2021/04/30 00:12:29;;;;;;;14.28;8.13;;;;;;;6.81;89.51;92537.03;1832886;77;21110;-81
2021/04/30 00:14:56;;;;;;;18.55;8.65;;;;;;;6.85;89.63;92540.30;1810878;79;21070;-77
2021/04/30 00:17:23;;;;;;;10.45;5.55;;;;;;;6.89;89.84;92539.12;1799583;78;21698;-79
2021/04/30 00:19:51;;;;;;;6.35;3.50;;;;;;;6.96;90.30;92538.32;1856847;75;21349;-80
2021/04/30 00:22:18;;;;;;;9.38;3.67;;;;;;;7.01;90.82;92534.61;1847032;77;21183;-79
2021/04/30 00:24:46;;;;;;;4.97;3.50;;;;;;;7.07;90.51;92537.69;1845044;77;21099;-82
2021/04/30 00:27:13;;;;;;;7.50;4.47;;;;;;;7.10;90.60;92536.88;1845247;76;21485;-79
2021/04/30 00:29:41;;;;;;;14.45;6.30;;;;;;;7.09;90.58;92541.34;1842685;77;21120;-79
2021/04/30 00:32:11;;;;;;;11.85;6.90;;;;;;;7.09;90.36;92529.17;1842681;77;22319;-78
2021/04/30 00:34:41;;;;;;;23.92;10.70;;;;;;;7.11;90.14;92539.00;1789438;77;21112;-81
2021/04/30 00:37:08;;;;;;;22.25;10.70;;;;;;;7.08;89.32;92540.58;1824837;76;21193;-84
2021/04/30 00:39:36;;;;;;;16.93;9.28;;;;;;;7.06;89.21;92535.55;1868194;76;21042;-76
2021/04/30 00:42:04;;;;;;;21.80;9.93;;;;;;;7.04;88.77;92536.53;1827908;78;21144;-78
2021/04/30 00:44:32;;;;;;;20.17;9.83;;;;;;;7.01;88.88;92535.20;1813230;78;21942;-79
2021/04/30 00:47:00;;;;;;;13.68;7.20;;;;;;;6.99;89.23;92546.39;1813798;77;21187;-83
2021/04/30 00:49:27;;;;;;;19.32;9.28;;;;;;;7.00;89.81;92545.25;1806126;77;21094;-82
2021/04/30 00:51:54;;;;;;;16.12;9.23;;;;;;;7.04;89.31;92539.23;1802577;79;21075;-77
2021/04/30 00:54:22;;;;;;;22.87;10.83;;;;;;;7.04;88.98;92542.53;1802390;79;21169;-77
2021/04/30 00:56:50;;;;;;;14.90;9.15;;;;;;;7.01;88.78;92548.13;1801915;79;21434;-81
2021/04/30 00:59:18;;;;;;;18.80;9.75;;;;;;;6.95;88.65;92545.64;1869271;76;21226;-78
2021/04/30 01:01:45;;;;;;;17.65;11.05;;;;;;;6.90;88.92;92544.70;1880331;76;21641;-77
2021/04/30 01:04:13;;;;;;;19.17;9.83;;;;;;;6.86;88.96;92537.19;1852291;76;21193;-77
2021/04/30 01:06:40;;;;;;;19.70;11.08;;;;;;;6.86;89.09;92542.59;1811769;79;21759;-76
2021/04/30 01:09:08;;;;;;;13.62;8.70;;;;;;;6.88;89.09;92543.55;1838663;78;21175;-79
2021/04/30 01:11:36;;;;;;;22.22;9.60;;;;;;;6.88;89.21;92553.77;1840863;77;21203;-78
2021/04/30 01:14:03;;;;;;;17.25;9.10;;;;;;;6.91;89.47;92557.05;1842444;77;21044;-76
2021/04/30 01:16:30;;;;;;;15.43;8.30;;;;;;;6.92;89.35;92549.15;1845121;77;21119;-76
2021/04/30 01:18:57;;;;;;;13.18;8.70;;;;;;;6.94;89.65;92558.20;1834114;77;21079;-79
2021/04/30 01:21:25;;;;;;;13.22;7.97;;;;;;;6.99;89.58;92565.89;1801006;78;21481;-78
2021/04/30 01:23:53;;;;;;;14.40;9.18;;;;;;;7.00;89.62;92581.73;1820790;78;21132;-77
2021/04/30 01:26:21;;;;;;;10.93;5.70;;;;;;;7.02;89.91;92611.83;1818627;77;21082;-80
2021/04/30 01:28:48;;;;;;;7.80;4.83;;;;;;;7.09;91.29;92629.20;1827720;78;21144;-79
2021/04/30 01:31:17;;;;;;;6.60;4.83;;;;;;;7.26;92.85;92621.02;1829801;78;21159;-78
2021/04/30 01:33:47;;;;;;;6.70;4.30;;;;;;;7.49;93.72;92618.41;1814540;78;21517;-78
2021/04/30 01:36:15;;;;;;;8.55;6.53;;;;;;;7.77;94.70;92611.46;1813907;78;21167;-81
2021/04/30 01:38:42;;;;;;;11.15;6.10;;;;;;;7.98;93.32;92607.09;1787381;77;21122;-82
2021/04/30 01:41:09;;;;;;;17.77;7.15;;;;;;;8.05;92.57;92608.39;1843813;77;21112;-80
2021/04/30 01:43:37;;;;;;;8.95;6.03;;;;;;;8.09;91.94;92601.59;1831251;76;21708;-79
2021/04/30 01:46:06;;;;;;;9.70;5.83;;;;;;;8.04;91.68;92599.48;1873326;76;21177;-80
2021/04/30 01:48:35;;;;;;;9.70;6.17;;;;;;;7.99;91.75;92592.37;1842410;77;21124;-83
2021/04/30 01:51:03;;;;;;;10.45;7.12;;;;;;;7.91;92.05;92585.48;1847145;77;21164;-80
2021/04/30 01:53:34;;;;;;;11.65;7.17;;;;;;;7.84;92.71;92570.05;1833254;77;21196;-82
2021/04/30 01:56:06;;;;;;;8.80;5.72;;;;;;;7.78;92.90;92562.95;1808672;79;21142;-79
2021/04/30 01:58:34;;;;;;;11.57;6.60;;;;;;;7.72;93.32;92564.53;1823578;78;21370;-80
2021/04/30 02:01:01;;;;;;;14.50;7.33;;;;;;;7.70;93.35;92564.73;1834436;78;21117;-81
2021/04/30 02:03:29;;;;;;;14.80;6.55;;;;;;;7.67;93.30;92569.58;1810544;79;21205;-79
2021/04/30 02:05:57;;;;;;;15.20;6.50;;;;;;;7.68;93.58;92570.55;1838378;78;21589;-80
2021/04/30 02:08:25;;;;;;;10.58;6.12;;;;;;;7.67;93.73;92574.44;1818335;77;21078;-80
2021/04/30 02:10:53;;;;;;;12.18;6.83;;;;;;;7.66;94.03;92573.46;1826110;78;21617;-80
2021/04/30 02:13:22;;;;;;;6.95;4.20;;;;;;;7.66;94.82;92562.64;1839515;77;21129;-81
2021/04/30 02:15:53;;;;;;;6.05;4.25;;;;;;;7.67;95.70;92558.76;1837389;78;21096;-81
2021/04/30 02:18:22;;;;;;;4.80;4.30;;;;;;;7.79;97.03;92563.13;1811160;79;21122;-81
2021/04/30 02:20:49;;;;;;;11.12;7.12;;;;;;;7.93;96.87;92568.24;1836740;78;21583;-78
2021/04/30 02:23:18;;;;;;;9.95;6.08;;;;;;;7.96;96.24;92574.98;1839693;78;21164;-82
2021/04/30 02:25:46;;;;;;;9.40;5.53;;;;;;;7.99;95.91;92574.19;1827338;77;21107;-80
2021/04/30 02:28:13;;;;;;;6.37;4.97;;;;;;;8.03;96.54;92574.93;1816882;78;21171;-80
2021/04/30 02:30:41;;;;;;;8.80;6.37;;;;;;;8.08;96.80;92580.50;1839869;78;21091;-82
2021/04/30 02:33:09;;;;;;;10.95;7.17;;;;;;;8.12;96.81;92575.05;1810829;78;21197;-81
2021/04/30 02:35:43;;;;;;;8.83;7.20;;;;;;;8.11;96.22;92570.23;1832948;78;21361;-81
2021/04/30 02:38:12;;;;;;;13.28;7.10;;;;;;;8.07;95.87;92581.67;1822362;78;21150;-80
2021/04/30 02:40:41;;;;;;;8.68;5.65;;;;;;;8.06;95.58;92580.73;1821555;78;21108;-79
2021/04/30 02:43:12;;;;;;;10.32;5.53;;;;;;;8.03;95.65;92568.16;1836081;78;21860;-79
2021/04/30 02:45:40;;;;;;;10.95;5.90;;;;;;;8.02;95.98;92567.22;1811462;79;21118;-81
2021/04/30 02:48:15;;;;;;;11.78;5.28;;;;;;;7.96;95.98;92556.03;1838495;78;21422;-80
2021/04/30 02:50:38;;;;;;;10.00;6.92;;;;;;;7.92;96.15;92557.23;1817472;78;21207;-81
2021/04/30 02:53:06;;;;;;;12.25;7.37;;;;;;;7.86;95.96;92554.76;1825861;78;21049;-81
2021/04/30 02:55:34;;;;;;;17.02;7.30;;;;;;;7.81;95.90;92553.25;1831033;77;21493;-79
2021/04/30 02:58:02;;;;;;;16.70;6.95;;;;;;;7.78;95.98;92569.72;1813017;78;21137;-79
2021/04/30 03:00:29;;;;;;;11.08;6.53;;;;;;;7.76;95.96;92567.22;1841830;77;21349;-80
2021/04/30 03:02:57;;;;;;;12.20;7.33;;;;;;;7.73;95.83;92565.30;1815562;78;21516;-82
2021/04/30 03:05:25;;;;;;;9.28;7.08;;;;;;;7.68;95.77;92571.14;1828870;78;21195;-79
2021/04/30 03:07:53;;;;;;;13.98;8.20;;;;;;;7.64;96.06;92560.93;1828730;77;21118;-77
2021/04/30 03:10:21;;;;;;;13.10;7.67;;;;;;;7.61;96.21;92561.13;1815454;77;21223;-79
2021/04/30 03:12:51;;;;;;;14.28;7.45;;;;;;;7.58;96.10;92567.91;1839547;78;21362;-83
2021/04/30 03:15:19;;;;;;;12.82;8.23;;;;;;;7.53;96.18;92566.41;1839411;77;21286;-82
2021/04/30 03:17:46;;;;;;;12.18;7.55;;;;;;;7.51;96.16;92568.14;1819138;78;21058;-79
2021/04/30 03:20:14;;;;;;;13.35;8.25;;;;;;;7.46;96.24;92563.74;1824858;78;21163;-84
2021/04/30 03:22:42;;;;;;;11.08;6.87;;;;;;;7.40;96.42;92553.14;1838989;78;21207;-85
2021/04/30 03:25:11;;;;;;;9.98;6.50;;;;;;;7.35;96.67;92541.39;1837821;78;21851;-83
2021/04/30 03:27:38;;;;;;;10.18;7.00;;;;;;;7.34;97.49;92557.45;1811113;79;21184;-82
2021/04/30 03:30:07;;;;;;;10.13;6.25;;;;;;;7.33;97.48;92540.42;1834719;78;21627;-85
2021/04/30 03:32:36;;;;;;;8.05;5.80;;;;;;;7.32;97.47;92547.59;1821358;78;21113;-81
2021/04/30 03:35:05;;;;;;;8.03;5.92;;;;;;;7.30;98.62;92529.06;1822510;78;21203;-80
2021/04/30 03:37:32;;;;;;;8.85;6.47;;;;;;;7.39;99.96;92529.97;1839826;78;21345;-81
2021/04/30 03:40:00;;;;;;;9.28;7.10;;;;;;;7.43;99.56;92542.30;1840057;78;21116;-81
2021/04/30 03:42:28;;;;;;;8.00;4.80;;;;;;;7.40;98.61;92550.44;1811743;77;21712;-81
2021/04/30 03:44:55;;;;;;;8.40;4.83;;;;;;;7.37;99.77;92548.52;1831582;78;21159;-82
2021/04/30 03:47:23;;;;;;;11.33;8.05;;;;;;;7.42;100.00;92559.70;1824354;78;21533;-81
2021/04/30 03:49:50;;;;;;;10.38;6.97;;;;;;;7.46;100.00;92546.16;1818629;78;21364;-81
2021/04/30 03:52:18;;;;;;;13.45;8.70;;;;;;;7.51;100.00;92552.49;1836594;78;21159;-81
2021/04/30 03:54:45;;;;;;;10.28;8.75;;;;;;;7.50;100.00;92550.38;1810448;79;21208;-83
2021/04/30 03:57:12;;;;;;;14.85;9.98;;;;;;;7.48;100.00;92546.52;1834860;78;21140;-78
2021/04/30 03:59:40;;;;;;;12.73;7.83;;;;;;;7.47;100.00;92540.92;1839958;77;21212;-78
2021/04/30 04:02:07;;;;;;;10.72;5.28;;;;;;;7.47;99.89;92548.45;1828424;78;21175;-81
2021/04/30 04:04:35;;;;;;;12.33;8.28;;;;;;;7.46;100.00;92544.80;1814780;78;21279;-82
2021/04/30 04:07:03;;;;;;;7.78;6.72;;;;;;;7.44;100.00;92540.36;1839865;78;21040;-84
2021/04/30 04:09:31;;;;;;;12.95;8.65;;;;;;;7.44;100.00;92537.07;1840349;78;21124;-79
2021/04/30 04:11:58;;;;;;;13.48;8.38;;;;;;;7.50;100.00;92540.14;1818270;77;21157;-83
2021/04/30 04:14:26;;;;;;;10.93;7.08;;;;;;;7.53;100.00;92549.59;1824352;78;21408;-82
2021/04/30 04:16:54;;;;;;;9.80;7.20;;;;;;;7.56;100.00;92552.09;1831928;77;21078;-84
2021/04/30 04:19:21;;;;;;;10.13;6.42;;;;;;;7.54;100.00;92553.83;1810949;78;21692;-82
2021/04/30 04:21:49;;;;;;;13.20;8.13;;;;;;;7.56;100.00;92548.03;1839058;78;21198;-82
2021/04/30 04:24:16;;;;;;;11.80;7.78;;;;;;;7.64;100.00;92556.88;1816444;77;21173;-83
2021/04/30 04:26:44;;;;;;;10.43;8.05;;;;;;;7.65;100.00;92567.28;1827650;78;21193;-83
2021/04/30 04:29:13;;;;;;;13.30;8.88;;;;;;;7.60;100.00;92568.27;1839993;77;21060;-82
2021/04/30 04:31:40;;;;;;;14.80;9.40;;;;;;;7.55;100.00;92582.41;1836323;77;21111;-80
2021/04/30 04:34:08;;;;;;;10.58;8.75;;;;;;;7.52;100.00;92587.84;1811172;79;21525;-85
2021/04/30 04:36:35;;;;;;;13.72;10.23;;;;;;;7.47;100.00;92580.92;1837188;78;21024;-81
2021/04/30 04:39:03;;;;;;;17.67;10.28;;;;;;;7.50;100.00;92591.53;1819055;78;21338;-85
2021/04/30 04:41:31;;;;;;;18.98;10.63;;;;;;;7.49;100.00;92580.54;1823537;78;21135;-80
2021/04/30 04:43:58;;;;;;;17.92;9.75;;;;;;;7.46;100.00;92580.73;1833625;78;21161;-85
2021/04/30 04:46:25;;;;;;;18.17;10.55;;;;;;;7.44;100.00;92588.46;1810580;79;21038;-81
2021/04/30 04:48:53;;;;;;;13.72;9.33;;;;;;;7.48;100.00;92583.80;1777279;80;21096;-84
2021/04/30 04:51:20;;;;;;;13.83;9.50;;;;;;;7.53;100.00;92591.52;1824858;78;21411;-83
2021/04/30 04:53:48;;;;;;;12.40;8.18;;;;;;;7.55;100.00;92584.34;1823844;78;21213;-82
2021/04/30 04:56:17;;;;;;;10.93;7.90;;;;;;;7.60;100.00;92581.80;1818659;78;21167;-83
2021/04/30 04:58:45;;;;;;;10.68;6.42;;;;;;;7.67;100.00;92575.79;1837265;78;21081;-82
2021/04/30 05:01:14;;;;;;;8.15;6.35;;;;;;;7.85;100.00;92587.06;1810811;79;21050;-78
2021/04/30 05:03:41;;;;;;;9.95;6.22;;;;;;;8.09;100.00;92580.70;1836520;78;21362;-82
2021/04/30 05:06:09;;;;;;;10.80;7.85;;;;;;;8.35;100.00;92579.88;1820490;78;21639;-80
2021/04/30 05:08:37;;;;;;;11.40;7.33;;;;;;;8.53;100.00;92571.63;1823657;78;21116;-80
2021/04/30 05:11:04;;;;;;;7.47;5.37;;;;;;;8.60;100.00;92579.69;1833894;78;21165;-78
2021/04/30 05:13:32;;;;;;;6.30;5.45;;;;;;;8.67;100.00;92579.03;1811450;79;21082;-82
2021/04/30 05:16:01;;;;;;;8.98;8.03;;;;;;;8.86;99.77;92583.68;1838607;78;22154;-79
2021/04/30 05:18:30;;;;;;;9.08;5.60;;;;;;;8.96;99.00;92589.58;1839723;78;21191;-85
2021/04/30 05:20:58;;;;;;;8.60;5.40;;;;;;;9.03;98.37;92581.93;1839723;78;21509;-84
2021/04/30 05:23:25;;;;;;;4.40;3.80;;;;;;;9.12;97.71;92591.72;1830198;78;21105;-81
2021/04/30 05:25:53;;;;;;;3.83;2.95;;;;;;;9.27;96.36;92594.44;1812446;78;21172;-81
2021/04/30 05:28:22;;;;;;;5.92;3.87;;;;;;;9.52;94.89;92582.52;1838948;78;21171;-83
2021/04/30 05:30:49;;;;;;;6.25;4.85;;;;;;;9.68;94.18;92578.00;1839798;78;21179;-81
2021/04/30 05:33:22;;;;;;;6.10;4.67;;;;;;;9.74;94.07;92582.38;1819323;78;21180;-85
2021/04/30 05:35:50;;;;;;;7.33;5.67;;;;;;;9.70;93.84;92579.73;1823500;78;21172;-79
2021/04/30 05:38:18;;;;;;;5.80;3.72;;;;;;;9.70;93.64;92585.16;1832495;78;21209;-79
2021/04/30 05:40:45;;;;;;;11.53;8.93;;;;;;;9.72;91.67;92577.95;1811504;78;21365;-85
2021/04/30 05:43:13;;;;;;;9.15;7.30;;;;;;;9.74;91.70;92587.80;1839574;77;21061;-82
2021/04/30 05:45:40;;;;;;;6.58;5.92;;;;;;;9.62;91.57;92576.16;1815364;77;21160;-81
2021/04/30 05:48:09;;;;;;;6.78;5.30;;;;;;;9.56;91.33;92584.59;1826959;78;21179;-84
2021/04/30 05:50:36;;;;;;;4.42;3.52;;;;;;;9.59;91.44;92590.53;1828831;77;21173;-80
2021/04/30 05:53:04;;;;;;;3.12;2.52;;;;;;;9.64;90.26;92585.44;1812741;78;21177;-83
2021/04/30 05:55:32;;;;;;;4.50;3.12;;;;;;;9.84;89.22;92586.13;1839460;77;21104;-82
2021/04/30 05:58:00;;;;;;;1.80;1.70;;;;;;;9.98;89.09;92581.84;1813766;78;21146;-82
2021/04/30 06:00:27;;;;;;;2.77;2.45;;;;;;;10.09;87.12;92570.23;1829049;78;21139;-82
2021/04/30 06:02:55;;;;;;;3.15;2.92;;;;;;;10.20;87.07;92565.98;1825855;78;21636;-82
2021/04/30 06:05:25;;;;;;;2.55;2.35;;;;;;;10.26;86.50;92572.50;1785750;78;21192;-81
2021/04/30 06:07:53;;;;;;;2.33;2.17;;;;;;;10.27;86.22;92578.13;1821803;78;21180;-79
2021/04/30 06:10:21;;;;;;;3.10;2.52;;;;;;;10.31;85.61;92571.28;1838561;78;21211;-82
2021/04/30 06:12:48;;;;;;;3.15;2.83;;;;;;;10.35;85.94;92589.65;1815088;77;21197;-84
2021/04/30 06:15:16;;;;;;;4.60;2.92;;;;;;;10.39;85.51;92587.05;1825353;78;21151;-81
2021/04/30 06:17:43;;;;;;;3.10;2.80;;;;;;;10.42;85.66;92594.38;1828123;78;21588;-82
2021/04/30 06:20:12;;;;;;;3.85;2.87;;;;;;;10.48;85.41;92599.33;1812491;78;21113;-85
2021/04/30 06:22:39;;;;;;;5.15;3.12;;;;;;;10.52;85.58;92600.80;1838667;78;21095;-85
2021/04/30 06:25:08;;;;;;;4.60;2.95;;;;;;;10.53;85.71;92595.56;1839400;77;21198;-82
2021/04/30 06:27:37;;;;;;;2.75;2.52;;;;;;;10.57;85.87;92608.50;1838909;78;21100;-85
2021/04/30 06:30:06;;;;;;;3.20;2.90;;;;;;;10.58;85.50;92604.59;1826497;78;21485;-82
2021/04/30 06:32:33;;;;;;;3.45;2.98;;;;;;;10.61;85.09;92613.28;1817020;78;21163;-82
2021/04/30 06:35:01;;;;;;;4.28;3.02;;;;;;;10.63;85.23;92605.47;1838996;77;21155;-80
2021/04/30 06:37:28;;;;;;;3.83;2.60;;;;;;;10.67;85.34;92608.13;1810142;79;21663;-83
2021/04/30 06:39:56;;;;;;;3.67;2.95;;;;;;;10.69;85.10;92616.05;1832407;78;21163;-85
2021/04/30 06:42:24;;;;;;;3.85;2.92;;;;;;;10.73;85.48;92611.91;1822619;78;22629;-82
2021/04/30 06:44:53;;;;;;;3.15;2.50;;;;;;;10.76;85.46;92604.89;1819679;78;21179;-83
2021/04/30 06:47:21;;;;;;;2.65;2.35;;;;;;;10.81;84.95;92597.60;1837241;78;21436;-80
2021/04/30 06:49:48;;;;;;;1.62;1.52;;;;;;;10.88;85.17;92595.52;1837403;77;21741;-84
2021/04/30 06:52:15;;;;;;;2.17;1.82;;;;;;;10.94;84.57;92596.58;1812165;78;21185;-83
2021/04/30 06:54:43;;;;;;;7.90;3.27;;;;;;;11.00;84.19;92591.41;1828566;78;22250;-83
2021/04/30 06:57:10;;;;;;;2.08;1.87;;;;;;;11.04;84.74;92583.95;1786512;79;21142;-82
2021/04/30 06:59:38;;;;;;;1.75;1.45;;;;;;;11.07;84.84;92581.76;1789693;78;21175;-86
2021/04/30 07:02:06;;;;;;;2.15;1.95;;;;;;;11.12;84.58;92588.06;1839029;78;21091;-81
2021/04/30 07:04:34;;;;;;;1.65;1.32;;;;;;;11.21;82.95;92588.89;1810190;77;21185;-79
2021/04/30 07:07:02;;;;;;;1.30;1.20;;;;;;;11.28;82.94;92589.32;1830760;78;21211;-81
2021/04/30 07:09:30;;;;;;;1.12;1.02;;;;;;;11.32;82.34;92585.36;1822715;78;22222;-86
2021/04/30 07:12:00;;;;;;;1.22;1.12;;;;;;;11.36;81.75;92586.05;1817359;78;21175;-82
2021/04/30 07:14:28;;;;;;;1.60;1.30;;;;;;;11.40;82.55;92593.55;1834604;78;21176;-80
2021/04/30 07:16:58;;;;;;;1.15;1.05;;;;;;;11.44;81.81;92589.40;1810063;79;21058;-81
2021/04/30 07:19:26;;;;;;;0.80;0.80;;;;;;;11.45;81.82;92586.84;1835519;78;21200;-80
2021/04/30 07:21:53;;;;;;;1.50;1.20;;;;;;;11.47;80.84;92598.66;1838594;78;21140;-80
2021/04/30 07:24:20;;;;;;;2.02;1.47;;;;;;;11.48;80.88;92594.17;1826958;78;21134;-83
2021/04/30 07:26:48;;;;;;;0.80;0.80;;;;;;;11.52;79.22;92600.91;1816027;78;21260;-79
2021/04/30 07:29:15;;;;;;;1.22;1.17;;;;;;;11.54;79.19;92597.92;1839328;78;21178;-88
2021/04/30 07:31:43;;;;;;;1.07;0.93;;;;;;;11.55;78.57;92609.60;1810400;78;21269;-83
2021/04/30 07:34:12;;;;;;;1.10;0.98;;;;;;;11.61;77.47;92607.91;1828554;78;21108;-82
2021/04/30 07:36:40;;;;;;;1.67;1.47;;;;;;;11.67;77.46;92618.48;1823566;78;21122;-82
2021/04/30 07:39:07;;;;;;;1.55;1.30;;;;;;;11.70;77.00;92622.30;1819441;78;21687;-81
2021/04/30 07:41:34;;;;;;;1.42;1.02;;;;;;;11.74;77.46;92613.48;1837341;78;21177;-83
2021/04/30 07:44:03;;;;;;;1.22;0.80;;;;;;;11.81;77.30;92625.00;1810073;79;21700;-82
2021/04/30 07:46:38;;;;;;;1.62;1.30;;;;;;;11.94;75.82;92627.86;1835907;78;21214;-84
2021/04/30 07:49:07;;;;;;;1.10;1.00;;;;;;;12.10;75.58;92631.20;1819033;77;22288;-80
2021/04/30 07:51:34;;;;;;;1.42;1.20;;;;;;;12.31;77.22;92635.41;1822783;78;21045;-83
2021/04/30 07:54:02;;;;;;;1.37;1.27;;;;;;;12.49;76.84;92632.28;1838681;78;21187;-81
2021/04/30 07:56:31;;;;;;;1.82;1.17;;;;;;;12.61;76.26;92634.31;1838832;77;21190;-82
2021/04/30 07:58:59;;;;;;;2.83;1.62;;;;;;;12.70;76.28;92637.20;1810639;79;21173;-85
2021/04/30 08:01:28;;;;;;;1.47;1.37;;;;;;;12.78;76.05;92647.34;1833993;78;21049;-84
2021/04/30 08:03:56;;;;;;;2.12;1.90;;;;;;;12.77;73.12;92642.48;1822403;78;21751;-79
2021/04/30 08:06:24;;;;;;;1.55;1.35;;;;;;;12.67;73.76;92654.41;1821142;78;21626;-82
2021/04/30 08:08:53;;;;;;;1.50;1.40;;;;;;;12.57;73.66;92642.58;1835432;78;21346;-84
2021/04/30 08:11:20;;;;;;;1.20;1.10;;;;;;;12.54;74.11;92653.58;1810778;79;21615;-82
2021/04/30 08:13:49;;;;;;;2.15;1.40;;;;;;;12.53;74.11;92661.59;1837620;78;21179;-84
2021/04/30 08:16:16;;;;;;;2.60;2.08;;;;;;;12.49;73.19;92660.91;1819301;78;21169;-84
2021/04/30 08:18:44;;;;;;;2.22;1.62;;;;;;;12.42;73.78;92650.17;1823867;78;21045;-86
2021/04/30 08:21:11;;;;;;;1.37;1.27;;;;;;;12.40;74.56;92655.43;1832667;77;22158;-80
2021/04/30 08:23:39;;;;;;;1.50;1.40;;;;;;;12.41;74.03;92658.92;1809607;78;21624;-81
2021/04/30 08:26:07;;;;;;;2.52;1.80;;;;;;;12.42;74.84;92659.11;1838250;78;21084;-86
2021/04/30 08:28:34;;;;;;;1.72;1.50;;;;;;;12.48;74.88;92651.94;1815948;78;21185;-82
2021/04/30 08:31:01;;;;;;;1.50;1.40;;;;;;;12.56;74.35;92655.27;1825988;78;21180;-83
2021/04/30 08:33:28;;;;;;;2.60;2.00;;;;;;;12.60;73.27;92654.61;1829241;78;21986;-81
2021/04/30 08:35:56;;;;;;;1.55;1.45;;;;;;;12.61;74.08;92652.05;1813348;78;21612;-84
2021/04/30 08:38:25;;;;;;;3.42;1.07;;;;;;;12.62;74.65;92654.94;1839073;77;21726;-83
2021/04/30 08:40:53;;;;;;;1.75;1.65;;;;;;;12.60;72.98;92656.73;1812532;77;21627;-81
2021/04/30 08:43:22;;;;;;;1.07;1.07;;;;;;;12.58;73.36;92646.84;1829335;78;21116;-81
2021/04/30 08:45:54;;;;;;;3.12;2.27;;;;;;;12.56;73.23;92645.72;1826102;77;22295;-82
2021/04/30 08:48:24;;;;;;;2.30;1.40;;;;;;;12.59;73.85;92653.81;1817462;78;21655;-83
2021/04/30 08:50:54;;;;;;;1.72;1.62;;;;;;;12.73;75.06;92643.17;1838133;78;21148;-84
2021/04/30 08:53:22;;;;;;;2.15;1.05;;;;;;;12.93;74.93;92652.61;1810331;79;21221;-80
2021/04/30 08:55:53;;;;;;;1.77;1.50;;;;;;;13.14;73.24;92654.05;1835002;78;21132;-78
2021/04/30 08:58:26;;;;;;;1.22;1.12;;;;;;;13.28;72.38;92646.12;1820912;78;21304;-79
2021/04/30 09:00:54;;;;;;;1.65;1.20;;;;;;;13.40;72.63;92643.27;1821901;78;21195;-84
2021/04/30 09:03:22;;;;;;;0.90;0.90;;;;;;;13.51;72.39;92634.19;1833625;78;21136;-82
2021/04/30 09:05:57;;;;;;;2.58;1.30;;;;;;;13.66;71.11;92633.19;1811164;79;21137;-78
2021/04/30 09:08:26;;;;;;;1.30;1.20;;;;;;;13.78;70.98;92655.67;1785620;78;21641;-81
2021/04/30 09:10:56;;;;;;;2.50;1.50;;;;;;;13.80;68.58;92632.19;1843173;76;21613;-79
2021/04/30 09:13:24;;;;;;;2.62;2.42;;;;;;;13.82;71.04;92633.88;1845296;77;21123;-80
2021/04/30 09:16:06;;;;;;;1.42;1.32;;;;;;;13.85;70.88;92643.94;1827925;77;21129;-79
2021/04/30 09:18:34;;;;;;;1.50;1.40;;;;;;;13.91;70.71;92641.42;1785997;79;21531;-80
2021/04/30 09:21:12;;;;;;;1.10;1.00;;;;;;;13.93;71.56;92636.91;1778277;79;21558;-84
2021/04/30 09:23:46;;;;;;;0.68;0.60;;;;;;;14.00;71.31;92623.80;1779478;80;21621;-82
2021/04/30 09:26:28;;;;;;;0.88;0.80;;;;;;;14.08;70.49;92640.75;1833858;77;21081;-79
2021/04/30 09:29:09;;;;;;;1.92;1.00;;;;;;;14.15;69.41;92647.98;1782603;78;21541;-81
2021/04/30 09:31:40;;;;;;;0.60;0.60;;;;;;;14.16;70.98;92641.30;1786260;79;21054;-80
2021/04/30 09:34:28;;;;;;;1.35;0.75;;;;;;;14.19;69.40;92647.27;1793790;79;21161;-81
2021/04/30 09:37:19;;;;;;;0.78;0.78;;;;;;;14.06;68.84;92654.08;1811515;79;21200;-78
2021/04/30 09:39:55;;;;;;;1.22;0.75;;;;;;;13.71;72.21;92645.70;1827463;76;21127;-85
2021/04/30 09:42:30;;;;;;;0.57;0.57;;;;;;;13.43;73.80;92656.06;1860742;76;21163;-82
2021/04/30 09:45:01;;;;;;;0.57;0.50;;;;;;;13.19;74.10;92658.97;1841873;77;21036;-81
2021/04/30 09:47:31;;;;;;;0.47;0.47;;;;;;;12.94;76.44;92662.35;1842113;77;21532;-80
2021/04/30 09:50:01;;;;;;;0.65;0.50;;;;;;;12.76;77.59;92654.59;1842161;77;21171;-77
2021/04/30 09:52:31;;;;;;;0.50;0.50;;;;;;;12.58;75.52;92660.47;1818934;77;21656;-82
2021/04/30 09:55:03;;;;;;;0.50;0.50;;;;;;;12.39;76.46;92649.81;1856745;77;21612;-79
2021/04/30 09:57:31;;;;;;;2.00;0.80;;;;;;;12.32;76.93;92669.05;1844009;77;21349;-81
2021/04/30 10:00:10;;;;;;;0.70;0.60;;;;;;;12.28;77.67;92662.91;1837676;77;21187;-80
2021/04/30 10:02:44;;;;;;;2.45;1.50;;;;;;;12.26;75.85;92668.61;1770350;80;21265;-85
2021/04/30 10:05:21;;;;;;;0.93;0.65;;;;;;;12.23;77.37;92664.03;1777680;80;21149;-82
2021/04/30 10:07:49;;;;;;;0.60;0.60;;;;;;;12.20;76.80;92664.88;1801033;78;21113;-76
2021/04/30 10:10:26;;;;;;;2.60;0.60;;;;;;;12.13;76.55;92665.78;1853763;76;21096;-80
2021/04/30 10:12:57;;;;;;;1.00;1.00;;;;;;;12.12;76.77;92661.53;1831664;77;21179;-80
2021/04/30 10:15:25;;;;;;;0.72;0.72;;;;;;;12.12;76.57;92656.09;1826429;77;21350;-79
2021/04/30 10:17:57;;;;;;;0.68;0.68;;;;;;;12.10;77.01;92656.48;1825283;78;21168;-83
2021/04/30 10:20:28;;;;;;;0.88;0.60;;;;;;;12.06;76.74;92668.66;1832401;77;21151;-79
2021/04/30 10:22:59;;;;;;;1.60;1.10;;;;;;;12.06;77.24;92679.56;1841008;77;21187;-84
2021/04/30 10:25:28;;;;;;;1.87;1.40;;;;;;;12.04;77.61;92674.55;1844682;77;21104;-84
2021/04/30 10:27:55;;;;;;;3.52;1.22;;;;;;;12.03;77.28;92654.52;1837304;77;21341;-82
2021/04/30 10:30:48;;;;;;;1.62;1.20;;;;;;;12.04;77.36;92662.88;1844231;77;21176;-86
2021/04/30 10:33:23;;;;;;;1.12;1.00;;;;;;;12.10;78.16;92654.36;1810647;79;21202;-78
2021/04/30 10:36:29;;;;;;;0.70;0.68;;;;;;;12.20;77.66;92660.19;1836394;77;21047;-81
2021/04/30 10:38:56;;;;;;;0.78;0.78;;;;;;;12.29;76.49;92660.95;1819992;78;21176;-79
2021/04/30 10:41:37;;;;;;;0.72;0.70;;;;;;;12.31;76.24;92649.81;1845333;77;22207;-81
2021/04/30 10:44:24;;;;;;;0.88;0.88;;;;;;;12.33;76.02;92651.50;1847568;77;21108;-80
2021/04/30 10:47:15;;;;;;;1.15;1.05;;;;;;;12.35;75.83;92645.64;1847623;77;21108;-85
2021/04/30 10:49:44;;;;;;;1.17;1.00;;;;;;;12.37;75.82;92647.33;1843777;77;21155;-80
2021/04/30 10:52:19;;;;;;;0.95;0.90;;;;;;;12.44;76.00;92648.53;1847810;77;21099;-80
2021/04/30 10:55:01;;;;;;;0.90;0.90;;;;;;;12.49;75.45;92658.19;1847498;77;21322;-80
2021/04/30 10:57:30;;;;;;;1.40;1.30;;;;;;;12.52;75.84;92660.80;1846613;77;21987;-82
2021/04/30 10:59:58;;;;;;;2.00;1.30;;;;;;;12.55;76.61;92672.83;1847507;77;21151;-79
2021/04/30 11:02:34;;;;;;;3.77;1.40;;;;;;;12.57;76.47;92670.45;1767421;77;22222;-85
2021/04/30 11:05:11;;;;;;;2.15;1.95;;;;;;;12.57;75.70;92663.64;1847641;76;21183;-81
2021/04/30 11:07:53;;;;;;;2.17;1.92;;;;;;;12.57;76.49;92662.27;1847766;77;21170;-83
2021/04/30 11:10:27;;;;;;;1.70;1.60;;;;;;;12.55;76.65;92673.59;1852793;77;21195;-82
2021/04/30 11:12:58;;;;;;;;;;;;;;;12.49;77.12;92673.18;1848497;77;21139;-80
2021/04/30 11:15:28;;;;;;;1.67;1.10;;;;;;;12.37;76.37;92674.02;1846758;77;20317;-82
2021/04/30 11:18:02;;;;;;;2.17;1.12;;;;;;;12.26;76.28;92679.52;1846888;77;21048;-80
2021/04/30 11:20:34;;;;;;;1.47;1.20;;;;;;;12.20;76.45;92678.50;1847307;77;21345;-82
2021/04/30 11:23:27;;;;;;;1.62;1.27;;;;;;;12.20;76.71;92678.50;1843085;77;21713;-84
2021/04/30 11:26:03;;;;;;;1.15;0.93;;;;;;;12.20;76.41;92682.59;1846848;77;21709;-82
2021/04/30 11:28:36;;;;;;;1.15;1.05;;;;;;;12.18;76.54;92680.27;1813977;77;21151;-81
2021/04/30 11:31:16;;;;;;;1.35;1.25;;;;;;;12.12;76.48;92675.92;1808644;77;21138;-82
2021/04/30 11:33:46;;;;;;;0.78;0.70;;;;;;;12.06;77.19;92690.46;1846870;77;21338;-79
2021/04/30 11:36:14;;;;;;;1.30;1.10;;;;;;;12.01;77.43;92682.80;1846413;77;21196;-81
2021/04/30 11:38:47;;;;;;;1.10;1.02;;;;;;;12.01;77.75;92689.61;1848110;77;21155;-81
2021/04/30 11:41:14;;;;;;;1.30;1.00;;;;;;;12.02;78.19;92649.66;1847297;77;21147;-86
2021/04/30 11:43:50;;;;;;;0.62;0.62;;;;;;;12.09;79.18;92669.19;1848062;77;21614;-79